sensor_id;sensor_type;location;lat;lon;timestamp;P1;durP1;ratioP1;P2;durP2;ratioP2
66559;SDS011;53413;49.878;8.142;2022-12-13T00:00:03;60.23;;;16.03;;
66559;SDS011;53413;49.878;8.142;2022-12-13T00:02:29;59.85;;;16.17;;
66559;SDS011;53413;49.878;8.142;2022-12-13T00:04:55;64.80;;;17.60;;
66559;SDS011;53413;49.878;8.142;2022-12-13T00:07:21;66.63;;;16.20;;
66559;SDS011;53413;49.878;8.142;2022-12-13T00:09:46;64.70;;;16.90;;
66559;SDS011;53413;49.878;8.142;2022-12-13T00:12:12;68.67;;;16.47;;
66559;SDS011;53413;49.878;8.142;2022-12-13T00:14:37;54.07;;;15.30;;
66559;SDS011;53413;49.878;8.142;2022-12-13T00:17:02;55.72;;;15.77;;
66559;SDS011;53413;49.878;8.142;2022-12-13T00:19:28;55.88;;;15.88;;
66559;SDS011;53413;49.878;8.142;2022-12-13T00:21:53;55.77;;;15.07;;
66559;SDS011;53413;49.878;8.142;2022-12-13T00:24:18;59.40;;;15.77;;
66559;SDS011;53413;49.878;8.142;2022-12-13T00:26:44;52.13;;;15.60;;
66559;SDS011;53413;49.878;8.142;2022-12-13T00:29:09;53.83;;;14.47;;
66559;SDS011;53413;49.878;8.142;2022-12-13T00:31:35;62.75;;;17.25;;
66559;SDS011;53413;49.878;8.142;2022-12-13T00:34:00;53.43;;;15.67;;
66559;SDS011;53413;49.878;8.142;2022-12-13T00:36:26;53.93;;;15.73;;
66559;SDS011;53413;49.878;8.142;2022-12-13T00:38:51;61.07;;;16.17;;
66559;SDS011;53413;49.878;8.142;2022-12-13T00:41:27;57.88;;;16.00;;
66559;SDS011;53413;49.878;8.142;2022-12-13T00:43:54;57.47;;;15.60;;
66559;SDS011;53413;49.878;8.142;2022-12-13T00:46:20;51.70;;;15.53;;
66559;SDS011;53413;49.878;8.142;2022-12-13T00:48:51;54.90;;;15.68;;
66559;SDS011;53413;49.878;8.142;2022-12-13T00:51:19;44.10;;;12.52;;
66559;SDS011;53413;49.878;8.142;2022-12-13T00:53:45;55.13;;;15.50;;
66559;SDS011;53413;49.878;8.142;2022-12-13T00:56:11;53.50;;;14.17;;
66559;SDS011;53413;49.878;8.142;2022-12-13T00:58:38;54.85;;;15.18;;
66559;SDS011;53413;49.878;8.142;2022-12-13T01:01:13;59.20;;;16.03;;
66559;SDS011;53413;49.878;8.142;2022-12-13T01:03:40;52.03;;;14.48;;
66559;SDS011;53413;49.878;8.142;2022-12-13T01:06:10;54.35;;;13.93;;
66559;SDS011;53413;49.878;8.142;2022-12-13T01:08:41;54.22;;;15.02;;
66559;SDS011;53413;49.878;8.142;2022-12-13T01:11:07;55.63;;;15.27;;
66559;SDS011;53413;49.878;8.142;2022-12-13T01:13:33;49.07;;;14.70;;
66559;SDS011;53413;49.878;8.142;2022-12-13T01:16:00;50.40;;;14.43;;
66559;SDS011;53413;49.878;8.142;2022-12-13T01:18:28;50.35;;;14.77;;
66559;SDS011;53413;49.878;8.142;2022-12-13T01:20:57;49.67;;;14.70;;
66559;SDS011;53413;49.878;8.142;2022-12-13T01:23:24;48.88;;;14.73;;
66559;SDS011;53413;49.878;8.142;2022-12-13T01:25:51;55.87;;;14.93;;
66559;SDS011;53413;49.878;8.142;2022-12-13T01:28:16;53.53;;;14.60;;
66559;SDS011;53413;49.878;8.142;2022-12-13T01:30:42;52.43;;;14.33;;
66559;SDS011;53413;49.878;8.142;2022-12-13T01:33:07;55.83;;;14.67;;
66559;SDS011;53413;49.878;8.142;2022-12-13T01:35:33;48.30;;;13.83;;
66559;SDS011;53413;49.878;8.142;2022-12-13T01:37:58;49.92;;;13.85;;
66559;SDS011;53413;49.878;8.142;2022-12-13T01:40:24;55.23;;;15.27;;
66559;SDS011;53413;49.878;8.142;2022-12-13T01:42:49;55.00;;;14.73;;
66559;SDS011;53413;49.878;8.142;2022-12-13T01:45:19;52.38;;;14.60;;
66559;SDS011;53413;49.878;8.142;2022-12-13T01:47:48;56.07;;;15.33;;
66559;SDS011;53413;49.878;8.142;2022-12-13T01:50:22;53.63;;;15.45;;
66559;SDS011;53413;49.878;8.142;2022-12-13T01:52:54;44.15;;;13.30;;
66559;SDS011;53413;49.878;8.142;2022-12-13T01:55:20;44.05;;;12.02;;
66559;SDS011;53413;49.878;8.142;2022-12-13T01:57:48;42.38;;;11.93;;
66559;SDS011;53413;49.878;8.142;2022-12-13T02:00:15;50.77;;;13.97;;
66559;SDS011;53413;49.878;8.142;2022-12-13T02:02:41;53.47;;;15.30;;
66559;SDS011;53413;49.878;8.142;2022-12-13T02:07:37;51.97;;;14.57;;
66559;SDS011;53413;49.878;8.142;2022-12-13T02:10:06;56.38;;;15.40;;
66559;SDS011;53413;49.878;8.142;2022-12-13T02:12:33;54.13;;;15.15;;
66559;SDS011;53413;49.878;8.142;2022-12-13T02:15:10;61.35;;;15.10;;
66559;SDS011;53413;49.878;8.142;2022-12-13T02:17:50;50.67;;;14.55;;
66559;SDS011;53413;49.878;8.142;2022-12-13T02:25:50;54.30;;;15.00;;
66559;SDS011;53413;49.878;8.142;2022-12-13T02:31:28;46.40;;;13.90;;
66559;SDS011;53413;49.878;8.142;2022-12-13T02:34:09;35.55;;;10.82;;
66559;SDS011;53413;49.878;8.142;2022-12-13T02:36:48;51.43;;;13.93;;
66559;SDS011;53413;49.878;8.142;2022-12-13T02:39:18;54.47;;;14.52;;
66559;SDS011;53413;49.878;8.142;2022-12-13T02:44:26;54.42;;;14.73;;
66559;SDS011;53413;49.878;8.142;2022-12-13T02:47:16;52.67;;;14.25;;
66559;SDS011;53413;49.878;8.142;2022-12-13T02:49:47;52.57;;;15.40;;
66559;SDS011;53413;49.878;8.142;2022-12-13T02:52:16;47.95;;;12.27;;
66559;SDS011;53413;49.878;8.142;2022-12-13T02:54:45;51.13;;;13.38;;
66559;SDS011;53413;49.878;8.142;2022-12-13T02:57:31;52.75;;;14.23;;
66559;SDS011;53413;49.878;8.142;2022-12-13T02:59:59;53.53;;;14.40;;
66559;SDS011;53413;49.878;8.142;2022-12-13T03:19:00;35.50;;;10.65;;
66559;SDS011;53413;49.878;8.142;2022-12-13T03:21:29;44.33;;;13.15;;
66559;SDS011;53413;49.878;8.142;2022-12-13T03:24:01;41.92;;;12.68;;
66559;SDS011;53413;49.878;8.142;2022-12-13T03:26:26;49.23;;;13.97;;
66559;SDS011;53413;49.878;8.142;2022-12-13T03:28:52;44.83;;;12.67;;
66559;SDS011;53413;49.878;8.142;2022-12-13T03:31:18;47.78;;;13.05;;
66559;SDS011;53413;49.878;8.142;2022-12-13T03:33:43;42.87;;;12.60;;
66559;SDS011;53413;49.878;8.142;2022-12-13T03:36:09;53.28;;;14.10;;
66559;SDS011;53413;49.878;8.142;2022-12-13T03:38:36;45.55;;;12.73;;
66559;SDS011;53413;49.878;8.142;2022-12-13T03:41:03;53.22;;;14.20;;
66559;SDS011;53413;49.878;8.142;2022-12-13T03:43:32;46.83;;;13.57;;
66559;SDS011;53413;49.878;8.142;2022-12-13T03:45:57;50.30;;;13.07;;
66559;SDS011;53413;49.878;8.142;2022-12-13T03:48:23;52.83;;;14.67;;
66559;SDS011;53413;49.878;8.142;2022-12-13T03:50:52;52.20;;;14.68;;
66559;SDS011;53413;49.878;8.142;2022-12-13T03:53:18;56.47;;;14.37;;
66559;SDS011;53413;49.878;8.142;2022-12-13T03:55:45;50.85;;;14.38;;
66559;SDS011;53413;49.878;8.142;2022-12-13T03:58:11;48.95;;;14.73;;
66559;SDS011;53413;49.878;8.142;2022-12-13T04:00:36;51.17;;;14.20;;
66559;SDS011;53413;49.878;8.142;2022-12-13T04:03:02;56.80;;;15.43;;
66559;SDS011;53413;49.878;8.142;2022-12-13T04:05:27;49.85;;;14.27;;
66559;SDS011;53413;49.878;8.142;2022-12-13T04:07:53;52.63;;;13.43;;
66559;SDS011;53413;49.878;8.142;2022-12-13T04:10:19;50.15;;;14.65;;
66559;SDS011;53413;49.878;8.142;2022-12-13T04:12:44;56.43;;;14.80;;
66559;SDS011;53413;49.878;8.142;2022-12-13T04:15:28;51.70;;;12.90;;
66559;SDS011;53413;49.878;8.142;2022-12-13T04:17:53;52.28;;;13.50;;
66559;SDS011;53413;49.878;8.142;2022-12-13T04:20:19;51.47;;;14.13;;
66559;SDS011;53413;49.878;8.142;2022-12-13T04:22:44;46.07;;;12.50;;
66559;SDS011;53413;49.878;8.142;2022-12-13T04:25:09;52.93;;;14.10;;
66559;SDS011;53413;49.878;8.142;2022-12-13T04:27:35;55.23;;;14.23;;
66559;SDS011;53413;49.878;8.142;2022-12-13T04:30:02;50.17;;;13.48;;
66559;SDS011;53413;49.878;8.142;2022-12-13T04:32:28;50.72;;;13.55;;
66559;SDS011;53413;49.878;8.142;2022-12-13T04:34:54;46.43;;;13.03;;
66559;SDS011;53413;49.878;8.142;2022-12-13T04:37:19;52.97;;;14.57;;
66559;SDS011;53413;49.878;8.142;2022-12-13T04:39:44;47.83;;;13.07;;
66559;SDS011;53413;49.878;8.142;2022-12-13T04:42:10;46.93;;;11.30;;
66559;SDS011;53413;49.878;8.142;2022-12-13T04:44:39;49.33;;;12.73;;
66559;SDS011;53413;49.878;8.142;2022-12-13T04:47:04;53.67;;;13.37;;
66559;SDS011;53413;49.878;8.142;2022-12-13T04:49:30;37.67;;;10.83;;
66559;SDS011;53413;49.878;8.142;2022-12-13T04:51:56;57.10;;;13.98;;
66559;SDS011;53413;49.878;8.142;2022-12-13T04:54:22;56.05;;;14.32;;
66559;SDS011;53413;49.878;8.142;2022-12-13T04:56:47;50.45;;;12.95;;
66559;SDS011;53413;49.878;8.142;2022-12-13T04:59:13;45.23;;;11.50;;
66559;SDS011;53413;49.878;8.142;2022-12-13T05:01:39;53.92;;;13.63;;
66559;SDS011;53413;49.878;8.142;2022-12-13T05:04:04;49.97;;;12.53;;
66559;SDS011;53413;49.878;8.142;2022-12-13T05:06:29;58.20;;;14.17;;
66559;SDS011;53413;49.878;8.142;2022-12-13T05:08:55;44.50;;;11.90;;
66559;SDS011;53413;49.878;8.142;2022-12-13T05:11:20;49.90;;;12.53;;
66559;SDS011;53413;49.878;8.142;2022-12-13T05:13:45;49.67;;;12.93;;
66559;SDS011;53413;49.878;8.142;2022-12-13T05:16:11;50.73;;;12.20;;
66559;SDS011;53413;49.878;8.142;2022-12-13T05:18:36;44.40;;;12.10;;
66559;SDS011;53413;49.878;8.142;2022-12-13T05:21:03;52.88;;;12.98;;
66559;SDS011;53413;49.878;8.142;2022-12-13T05:23:30;47.72;;;12.98;;
66559;SDS011;53413;49.878;8.142;2022-12-13T05:25:56;51.43;;;13.67;;
66559;SDS011;53413;49.878;8.142;2022-12-13T05:28:22;50.53;;;11.60;;
66559;SDS011;53413;49.878;8.142;2022-12-13T05:30:50;57.40;;;14.03;;
66559;SDS011;53413;49.878;8.142;2022-12-13T05:33:15;51.33;;;13.13;;
66559;SDS011;53413;49.878;8.142;2022-12-13T05:35:41;43.97;;;10.37;;
66559;SDS011;53413;49.878;8.142;2022-12-13T05:38:06;52.50;;;13.43;;
66559;SDS011;53413;49.878;8.142;2022-12-13T05:40:31;46.23;;;11.63;;
66559;SDS011;53413;49.878;8.142;2022-12-13T05:42:57;45.83;;;11.53;;
66559;SDS011;53413;49.878;8.142;2022-12-13T05:45:22;55.72;;;13.70;;
66559;SDS011;53413;49.878;8.142;2022-12-13T05:47:48;51.57;;;13.87;;
66559;SDS011;53413;49.878;8.142;2022-12-13T05:50:14;47.47;;;11.93;;
66559;SDS011;53413;49.878;8.142;2022-12-13T05:52:43;48.35;;;13.18;;
66559;SDS011;53413;49.878;8.142;2022-12-13T05:55:09;48.70;;;12.20;;
66559;SDS011;53413;49.878;8.142;2022-12-13T05:57:35;51.00;;;12.95;;
66559;SDS011;53413;49.878;8.142;2022-12-13T06:00:02;56.73;;;13.47;;
66559;SDS011;53413;49.878;8.142;2022-12-13T06:02:31;49.80;;;13.52;;
66559;SDS011;53413;49.878;8.142;2022-12-13T06:05:00;48.75;;;13.80;;
66559;SDS011;53413;49.878;8.142;2022-12-13T06:07:26;52.40;;;12.80;;
66559;SDS011;53413;49.878;8.142;2022-12-13T06:09:52;56.10;;;13.77;;
66559;SDS011;53413;49.878;8.142;2022-12-13T06:12:17;48.40;;;13.30;;
66559;SDS011;53413;49.878;8.142;2022-12-13T06:14:42;50.93;;;12.50;;
66559;SDS011;53413;49.878;8.142;2022-12-13T06:17:08;45.97;;;13.13;;
66559;SDS011;53413;49.878;8.142;2022-12-13T06:19:33;49.53;;;12.63;;
66559;SDS011;53413;49.878;8.142;2022-12-13T06:21:58;47.90;;;12.57;;
66559;SDS011;53413;49.878;8.142;2022-12-13T06:24:24;46.65;;;12.60;;
66559;SDS011;53413;49.878;8.142;2022-12-13T06:26:51;51.07;;;13.13;;
66559;SDS011;53413;49.878;8.142;2022-12-13T06:29:17;46.83;;;12.10;;
66559;SDS011;53413;49.878;8.142;2022-12-13T06:31:44;53.03;;;13.10;;
66559;SDS011;53413;49.878;8.142;2022-12-13T06:34:09;49.23;;;13.00;;
66559;SDS011;53413;49.878;8.142;2022-12-13T06:36:35;48.95;;;12.95;;
66559;SDS011;53413;49.878;8.142;2022-12-13T06:39:01;51.42;;;13.20;;
66559;SDS011;53413;49.878;8.142;2022-12-13T06:41:29;55.73;;;13.60;;
66559;SDS011;53413;49.878;8.142;2022-12-13T06:43:54;59.50;;;13.57;;
66559;SDS011;53413;49.878;8.142;2022-12-13T06:46:20;52.67;;;13.67;;
66559;SDS011;53413;49.878;8.142;2022-12-13T06:48:45;55.00;;;13.70;;
66559;SDS011;53413;49.878;8.142;2022-12-13T06:51:10;53.93;;;13.50;;
66559;SDS011;53413;49.878;8.142;2022-12-13T06:53:37;48.40;;;13.27;;
66559;SDS011;53413;49.878;8.142;2022-12-13T06:56:13;55.42;;;13.70;;
66559;SDS011;53413;49.878;8.142;2022-12-13T06:58:39;54.70;;;14.50;;
66559;SDS011;53413;49.878;8.142;2022-12-13T07:01:09;54.77;;;13.33;;
66559;SDS011;53413;49.878;8.142;2022-12-13T07:03:39;48.33;;;12.35;;
66559;SDS011;53413;49.878;8.142;2022-12-13T07:06:06;60.28;;;13.75;;
66559;SDS011;53413;49.878;8.142;2022-12-13T07:08:40;55.67;;;13.63;;
66559;SDS011;53413;49.878;8.142;2022-12-13T07:11:07;54.22;;;13.88;;
66559;SDS011;53413;49.878;8.142;2022-12-13T07:13:37;53.60;;;13.67;;
66559;SDS011;53413;49.878;8.142;2022-12-13T07:16:02;55.63;;;14.02;;
66559;SDS011;53413;49.878;8.142;2022-12-13T07:18:28;58.87;;;14.23;;
66559;SDS011;53413;49.878;8.142;2022-12-13T07:20:53;56.07;;;15.03;;
66559;SDS011;53413;49.878;8.142;2022-12-13T07:23:18;53.13;;;14.43;;
66559;SDS011;53413;49.878;8.142;2022-12-13T07:25:53;56.20;;;13.77;;
66559;SDS011;53413;49.878;8.142;2022-12-13T07:28:19;55.92;;;13.55;;
66559;SDS011;53413;49.878;8.142;2022-12-13T07:30:45;38.92;;;10.35;;
66559;SDS011;53413;49.878;8.142;2022-12-13T07:33:11;39.57;;;11.30;;
66559;SDS011;53413;49.878;8.142;2022-12-13T07:35:37;48.97;;;13.20;;
66559;SDS011;53413;49.878;8.142;2022-12-13T07:38:03;48.97;;;12.53;;
66559;SDS011;53413;49.878;8.142;2022-12-13T07:40:29;44.05;;;11.98;;
66559;SDS011;53413;49.878;8.142;2022-12-13T07:42:54;40.93;;;11.10;;
66559;SDS011;53413;49.878;8.142;2022-12-13T07:45:21;40.95;;;11.07;;
66559;SDS011;53413;49.878;8.142;2022-12-13T07:47:47;42.90;;;12.30;;
66559;SDS011;53413;49.878;8.142;2022-12-13T07:50:12;29.38;;;8.57;;
66559;SDS011;53413;49.878;8.142;2022-12-13T07:52:38;38.73;;;11.23;;
66559;SDS011;53413;49.878;8.142;2022-12-13T07:55:04;41.17;;;11.52;;
66559;SDS011;53413;49.878;8.142;2022-12-13T07:57:31;41.57;;;12.50;;
66559;SDS011;53413;49.878;8.142;2022-12-13T07:59:56;49.70;;;12.75;;
66559;SDS011;53413;49.878;8.142;2022-12-13T08:02:22;43.37;;;12.97;;
66559;SDS011;53413;49.878;8.142;2022-12-13T08:04:47;36.43;;;10.87;;
66559;SDS011;53413;49.878;8.142;2022-12-13T08:07:13;41.73;;;12.37;;
66559;SDS011;53413;49.878;8.142;2022-12-13T08:09:38;38.37;;;11.73;;
66559;SDS011;53413;49.878;8.142;2022-12-13T08:12:03;38.35;;;10.68;;
66559;SDS011;53413;49.878;8.142;2022-12-13T08:14:29;41.75;;;13.13;;
66559;SDS011;53413;49.878;8.142;2022-12-13T08:16:55;46.30;;;13.25;;
66559;SDS011;53413;49.878;8.142;2022-12-13T08:19:21;42.70;;;13.20;;
66559;SDS011;53413;49.878;8.142;2022-12-13T08:21:47;38.17;;;11.38;;
66559;SDS011;53413;49.878;8.142;2022-12-13T08:24:12;42.33;;;12.50;;
66559;SDS011;53413;49.878;8.142;2022-12-13T08:26:37;41.30;;;12.87;;
66559;SDS011;53413;49.878;8.142;2022-12-13T08:29:03;35.87;;;12.10;;
66559;SDS011;53413;49.878;8.142;2022-12-13T08:31:28;36.80;;;11.73;;
66559;SDS011;53413;49.878;8.142;2022-12-13T08:33:55;37.07;;;12.03;;
66559;SDS011;53413;49.878;8.142;2022-12-13T08:36:20;34.47;;;11.27;;
66559;SDS011;53413;49.878;8.142;2022-12-13T08:38:48;38.75;;;11.35;;
66559;SDS011;53413;49.878;8.142;2022-12-13T08:41:16;39.25;;;12.30;;
66559;SDS011;53413;49.878;8.142;2022-12-13T08:43:42;36.93;;;11.57;;
66559;SDS011;53413;49.878;8.142;2022-12-13T08:46:08;33.70;;;11.00;;
66559;SDS011;53413;49.878;8.142;2022-12-13T08:48:33;36.40;;;11.30;;
66559;SDS011;53413;49.878;8.142;2022-12-13T08:51:01;33.35;;;12.02;;
66559;SDS011;53413;49.878;8.142;2022-12-13T08:53:29;34.80;;;11.20;;
66559;SDS011;53413;49.878;8.142;2022-12-13T08:56:04;31.20;;;10.77;;
66559;SDS011;53413;49.878;8.142;2022-12-13T08:58:32;33.10;;;10.70;;
66559;SDS011;53413;49.878;8.142;2022-12-13T09:00:57;29.30;;;9.85;;
66559;SDS011;53413;49.878;8.142;2022-12-13T09:03:23;30.47;;;10.23;;
66559;SDS011;53413;49.878;8.142;2022-12-13T09:05:49;32.28;;;10.60;;
66559;SDS011;53413;49.878;8.142;2022-12-13T09:08:14;26.97;;;9.80;;
66559;SDS011;53413;49.878;8.142;2022-12-13T09:10:40;30.67;;;10.52;;
66559;SDS011;53413;49.878;8.142;2022-12-13T09:13:05;28.07;;;10.70;;
66559;SDS011;53413;49.878;8.142;2022-12-13T09:15:31;27.80;;;10.47;;
66559;SDS011;53413;49.878;8.142;2022-12-13T09:17:57;27.42;;;10.50;;
66559;SDS011;53413;49.878;8.142;2022-12-13T09:20:22;28.73;;;10.33;;
66559;SDS011;53413;49.878;8.142;2022-12-13T09:22:48;29.60;;;10.75;;
66559;SDS011;53413;49.878;8.142;2022-12-13T09:25:14;28.70;;;10.90;;
66559;SDS011;53413;49.878;8.142;2022-12-13T09:27:40;28.13;;;10.57;;
66559;SDS011;53413;49.878;8.142;2022-12-13T09:30:06;27.63;;;10.60;;
66559;SDS011;53413;49.878;8.142;2022-12-13T09:32:32;29.08;;;10.38;;
66559;SDS011;53413;49.878;8.142;2022-12-13T09:34:58;29.33;;;11.17;;
66559;SDS011;53413;49.878;8.142;2022-12-13T09:37:23;27.42;;;10.25;;
66559;SDS011;53413;49.878;8.142;2022-12-13T09:39:49;28.93;;;10.40;;
66559;SDS011;53413;49.878;8.142;2022-12-13T09:42:32;28.37;;;10.33;;
66559;SDS011;53413;49.878;8.142;2022-12-13T09:45:03;29.25;;;9.45;;
66559;SDS011;53413;49.878;8.142;2022-12-13T09:47:32;28.87;;;10.07;;
66559;SDS011;53413;49.878;8.142;2022-12-13T09:50:01;30.23;;;10.45;;
66559;SDS011;53413;49.878;8.142;2022-12-13T09:52:36;30.88;;;10.13;;
66559;SDS011;53413;49.878;8.142;2022-12-13T09:55:26;27.27;;;9.48;;
66559;SDS011;53413;49.878;8.142;2022-12-13T09:57:54;28.55;;;10.35;;
66559;SDS011;53413;49.878;8.142;2022-12-13T10:00:21;26.23;;;9.33;;
66559;SDS011;53413;49.878;8.142;2022-12-13T10:02:50;31.80;;;10.57;;
66559;SDS011;53413;49.878;8.142;2022-12-13T10:05:23;32.75;;;10.73;;
66559;SDS011;53413;49.878;8.142;2022-12-13T10:07:51;34.78;;;10.63;;
66559;SDS011;53413;49.878;8.142;2022-12-13T10:10:18;29.13;;;10.27;;
66559;SDS011;53413;49.878;8.142;2022-12-13T10:12:44;29.85;;;10.23;;
66559;SDS011;53413;49.878;8.142;2022-12-13T10:15:15;30.83;;;10.00;;
66559;SDS011;53413;49.878;8.142;2022-12-13T10:17:43;33.38;;;10.73;;
66559;SDS011;53413;49.878;8.142;2022-12-13T10:20:18;32.60;;;10.40;;
66559;SDS011;53413;49.878;8.142;2022-12-13T10:22:45;29.05;;;8.80;;
66559;SDS011;53413;49.878;8.142;2022-12-13T10:25:11;34.08;;;10.50;;
66559;SDS011;53413;49.878;8.142;2022-12-13T10:27:41;29.03;;;10.10;;
66559;SDS011;53413;49.878;8.142;2022-12-13T10:35:30;27.50;;;9.70;;
66559;SDS011;53413;49.878;8.142;2022-12-13T10:38:19;30.48;;;9.75;;
66559;SDS011;53413;49.878;8.142;2022-12-13T10:40:50;28.73;;;9.40;;
66559;SDS011;53413;49.878;8.142;2022-12-13T10:43:23;28.90;;;10.02;;
66559;SDS011;53413;49.878;8.142;2022-12-13T10:46:01;33.28;;;11.23;;
66559;SDS011;53413;49.878;8.142;2022-12-13T10:48:46;28.00;;;9.40;;
66559;SDS011;53413;49.878;8.142;2022-12-13T10:51:14;29.13;;;9.15;;
66559;SDS011;53413;49.878;8.142;2022-12-13T10:53:46;30.75;;;10.55;;
66559;SDS011;53413;49.878;8.142;2022-12-13T10:56:19;29.42;;;9.40;;
66559;SDS011;53413;49.878;8.142;2022-12-13T10:58:46;36.65;;;10.88;;
66559;SDS011;53413;49.878;8.142;2022-12-13T11:06:20;31.58;;;9.68;;
66559;SDS011;53413;49.878;8.142;2022-12-13T11:08:46;30.30;;;10.67;;
66559;SDS011;53413;49.878;8.142;2022-12-13T11:11:11;32.20;;;11.48;;
66559;SDS011;53413;49.878;8.142;2022-12-13T11:13:43;35.37;;;11.63;;
66559;SDS011;53413;49.878;8.142;2022-12-13T11:16:20;35.67;;;11.40;;
66559;SDS011;53413;49.878;8.142;2022-12-13T11:18:51;28.67;;;10.07;;
66559;SDS011;53413;49.878;8.142;2022-12-13T11:21:27;32.63;;;10.40;;
66559;SDS011;53413;49.878;8.142;2022-12-13T11:23:54;26.73;;;8.88;;
66559;SDS011;53413;49.878;8.142;2022-12-13T11:26:22;31.83;;;10.40;;
66559;SDS011;53413;49.878;8.142;2022-12-13T11:40:22;31.97;;;10.20;;
66559;SDS011;53413;49.878;8.142;2022-12-13T11:48:10;30.45;;;10.00;;
66559;SDS011;53413;49.878;8.142;2022-12-13T11:50:50;29.23;;;10.25;;
66559;SDS011;53413;49.878;8.142;2022-12-13T11:55:43;26.50;;;9.43;;
66559;SDS011;53413;49.878;8.142;2022-12-13T11:58:18;27.10;;;9.57;;
66559;SDS011;53413;49.878;8.142;2022-12-13T12:00:51;24.13;;;7.60;;
66559;SDS011;53413;49.878;8.142;2022-12-13T12:03:34;23.85;;;7.97;;
66559;SDS011;53413;49.878;8.142;2022-12-13T12:08:41;24.60;;;8.00;;
66559;SDS011;53413;49.878;8.142;2022-12-13T12:11:16;24.20;;;8.93;;
66559;SDS011;53413;49.878;8.142;2022-12-13T12:13:52;21.95;;;7.97;;
66559;SDS011;53413;49.878;8.142;2022-12-13T12:19:14;25.25;;;9.25;;
66559;SDS011;53413;49.878;8.142;2022-12-13T12:43:41;24.17;;;7.88;;
66559;SDS011;53413;49.878;8.142;2022-12-13T12:54:23;26.45;;;9.20;;
66559;SDS011;53413;49.878;8.142;2022-12-13T13:02:38;26.97;;;9.03;;
66559;SDS011;53413;49.878;8.142;2022-12-13T13:05:21;22.00;;;8.70;;
66559;SDS011;53413;49.878;8.142;2022-12-13T13:07:59;26.52;;;8.77;;
66559;SDS011;53413;49.878;8.142;2022-12-13T13:10:37;24.55;;;8.60;;
66559;SDS011;53413;49.878;8.142;2022-12-13T13:13:04;29.73;;;9.63;;
66559;SDS011;53413;49.878;8.142;2022-12-13T13:17:55;20.07;;;7.07;;
66559;SDS011;53413;49.878;8.142;2022-12-13T13:20:22;22.85;;;8.27;;
66559;SDS011;53413;49.878;8.142;2022-12-13T13:22:49;24.70;;;8.80;;
66559;SDS011;53413;49.878;8.142;2022-12-13T13:25:29;23.80;;;9.05;;
66559;SDS011;53413;49.878;8.142;2022-12-13T13:36:11;23.90;;;8.30;;
66559;SDS011;53413;49.878;8.142;2022-12-13T13:39:03;25.40;;;9.23;;
66559;SDS011;53413;49.878;8.142;2022-12-13T13:50:01;22.38;;;7.85;;
66559;SDS011;53413;49.878;8.142;2022-12-13T13:52:36;22.55;;;7.70;;
66559;SDS011;53413;49.878;8.142;2022-12-13T14:30:56;19.80;;;7.00;;
66559;SDS011;53413;49.878;8.142;2022-12-13T14:33:22;24.53;;;8.53;;
66559;SDS011;53413;49.878;8.142;2022-12-13T14:35:52;24.73;;;9.15;;
66559;SDS011;53413;49.878;8.142;2022-12-13T14:38:29;26.33;;;9.02;;
66559;SDS011;53413;49.878;8.142;2022-12-13T14:40:57;22.52;;;8.48;;
66559;SDS011;53413;49.878;8.142;2022-12-13T14:43:28;24.43;;;8.53;;
66559;SDS011;53413;49.878;8.142;2022-12-13T14:45:57;23.23;;;8.05;;
66559;SDS011;53413;49.878;8.142;2022-12-13T14:48:28;23.65;;;7.95;;
66559;SDS011;53413;49.878;8.142;2022-12-13T14:50:58;22.88;;;7.68;;
66559;SDS011;53413;49.878;8.142;2022-12-13T14:53:24;24.53;;;9.10;;
66559;SDS011;53413;49.878;8.142;2022-12-13T14:56:05;18.50;;;6.93;;
66559;SDS011;53413;49.878;8.142;2022-12-13T14:58:31;23.63;;;8.70;;
66559;SDS011;53413;49.878;8.142;2022-12-13T15:00:56;24.38;;;8.35;;
66559;SDS011;53413;49.878;8.142;2022-12-13T15:03:25;20.20;;;7.20;;
66559;SDS011;53413;49.878;8.142;2022-12-13T15:05:52;25.33;;;9.25;;
66559;SDS011;53413;49.878;8.142;2022-12-13T15:08:20;26.85;;;9.57;;
66559;SDS011;53413;49.878;8.142;2022-12-13T15:10:46;26.00;;;8.97;;
66559;SDS011;53413;49.878;8.142;2022-12-13T15:13:30;26.17;;;8.90;;
66559;SDS011;53413;49.878;8.142;2022-12-13T15:16:02;27.67;;;7.72;;
66559;SDS011;53413;49.878;8.142;2022-12-13T15:19:05;30.80;;;9.57;;
66559;SDS011;53413;49.878;8.142;2022-12-13T15:21:36;26.93;;;9.20;;
66559;SDS011;53413;49.878;8.142;2022-12-13T15:24:01;26.70;;;8.95;;
66559;SDS011;53413;49.878;8.142;2022-12-13T15:26:28;26.93;;;9.13;;
66559;SDS011;53413;49.878;8.142;2022-12-13T15:28:57;27.10;;;9.20;;
66559;SDS011;53413;49.878;8.142;2022-12-13T15:31:24;28.75;;;9.20;;
66559;SDS011;53413;49.878;8.142;2022-12-13T15:33:49;26.27;;;8.93;;
66559;SDS011;53413;49.878;8.142;2022-12-13T15:36:16;30.30;;;9.93;;
66559;SDS011;53413;49.878;8.142;2022-12-13T15:41:16;26.23;;;9.23;;
66559;SDS011;53413;49.878;8.142;2022-12-13T15:43:48;28.40;;;9.65;;
66559;SDS011;53413;49.878;8.142;2022-12-13T15:46:30;28.00;;;8.55;;
66559;SDS011;53413;49.878;8.142;2022-12-13T15:48:58;27.88;;;9.50;;
66559;SDS011;53413;49.878;8.142;2022-12-13T15:51:26;29.50;;;10.03;;
66559;SDS011;53413;49.878;8.142;2022-12-13T15:54:33;28.02;;;9.52;;
66559;SDS011;53413;49.878;8.142;2022-12-13T15:59:46;28.30;;;9.95;;
66559;SDS011;53413;49.878;8.142;2022-12-13T16:02:14;29.40;;;10.33;;
66559;SDS011;53413;49.878;8.142;2022-12-13T16:04:48;27.63;;;10.02;;
66559;SDS011;53413;49.878;8.142;2022-12-13T16:09:47;20.67;;;7.18;;
66559;SDS011;53413;49.878;8.142;2022-12-13T16:12:18;29.60;;;9.60;;
66559;SDS011;53413;49.878;8.142;2022-12-13T16:14:48;29.50;;;10.27;;
66559;SDS011;53413;49.878;8.142;2022-12-13T16:17:21;29.50;;;10.23;;
66559;SDS011;53413;49.878;8.142;2022-12-13T16:19:52;29.90;;;10.50;;
66559;SDS011;53413;49.878;8.142;2022-12-13T16:22:19;33.70;;;11.10;;
66559;SDS011;53413;49.878;8.142;2022-12-13T16:24:47;30.77;;;10.75;;
66559;SDS011;53413;49.878;8.142;2022-12-13T16:27:13;32.28;;;11.38;;
66559;SDS011;53413;49.878;8.142;2022-12-13T16:29:39;31.00;;;11.50;;
66559;SDS011;53413;49.878;8.142;2022-12-13T16:32:04;33.60;;;12.07;;
66559;SDS011;53413;49.878;8.142;2022-12-13T16:34:30;34.77;;;11.23;;
66559;SDS011;53413;49.878;8.142;2022-12-13T16:36:55;31.88;;;10.32;;
66559;SDS011;53413;49.878;8.142;2022-12-13T16:39:23;35.23;;;11.87;;
66559;SDS011;53413;49.878;8.142;2022-12-13T16:41:49;32.47;;;10.88;;
66559;SDS011;53413;49.878;8.142;2022-12-13T16:44:20;29.57;;;10.67;;
66559;SDS011;53413;49.878;8.142;2022-12-13T16:46:59;25.67;;;8.50;;
66559;SDS011;53413;49.878;8.142;2022-12-13T16:49:26;30.93;;;11.00;;
66559;SDS011;53413;49.878;8.142;2022-12-13T16:51:53;32.67;;;11.43;;
66559;SDS011;53413;49.878;8.142;2022-12-13T16:54:19;35.00;;;12.48;;
66559;SDS011;53413;49.878;8.142;2022-12-13T16:56:46;35.53;;;12.60;;
66559;SDS011;53413;49.878;8.142;2022-12-13T16:59:15;31.17;;;12.07;;
66559;SDS011;53413;49.878;8.142;2022-12-13T17:01:43;35.33;;;12.05;;
66559;SDS011;53413;49.878;8.142;2022-12-13T17:04:13;35.42;;;12.65;;
66559;SDS011;53413;49.878;8.142;2022-12-13T17:06:41;34.35;;;12.10;;
66559;SDS011;53413;49.878;8.142;2022-12-13T17:09:07;31.53;;;10.90;;
66559;SDS011;53413;49.878;8.142;2022-12-13T17:11:33;32.10;;;10.40;;
66559;SDS011;53413;49.878;8.142;2022-12-13T17:14:00;31.13;;;10.88;;